createdAt,value
2023-02-07T00:08:55.462Z,30.23
2023-02-07T00:16:58.971Z,29.10
2023-02-07T00:19:36.777Z,30.38
2023-02-07T00:22:07.921Z,21.92
2023-02-07T00:27:21.723Z,23.23
2023-02-07T00:29:53.344Z,30.40
2023-02-07T00:35:26.453Z,18.92
2023-02-07T00:38:03.329Z,13.05
2023-02-07T00:40:31.990Z,16.20
2023-02-07T00:43:00.780Z,19.05
2023-02-07T00:45:29.775Z,14.10
2023-02-07T00:47:58.474Z,15.18
2023-02-07T00:50:26.187Z,22.55
2023-02-07T00:52:55.813Z,21.88
2023-02-07T00:55:23.632Z,23.75
2023-02-07T00:57:56.591Z,18.27
2023-02-07T01:00:24.222Z,15.15
2023-02-07T01:02:52.685Z,18.92
2023-02-07T01:05:20.942Z,14.10
2023-02-07T01:07:49.064Z,15.02
2023-02-07T01:10:17.357Z,17.35
2023-02-07T01:12:46.329Z,19.75
2023-02-07T01:15:15.829Z,21.80
2023-02-07T01:17:43.470Z,16.25
2023-02-07T01:20:11.491Z,14.05
2023-02-07T01:22:40.178Z,14.90
2023-02-07T01:25:09.021Z,12.48
2023-02-07T01:27:37.343Z,18.73
2023-02-07T01:30:06.905Z,18.83
2023-02-07T01:32:35.357Z,12.38
2023-02-07T01:35:03.292Z,15.18
2023-02-07T01:37:31.126Z,15.05
2023-02-07T01:39:58.517Z,16.73
2023-02-07T01:42:29.405Z,15.45
2023-02-07T01:45:20.917Z,18.88
2023-02-07T01:47:48.684Z,21.17
2023-02-07T01:50:16.426Z,14.77
2023-02-07T01:52:44.176Z,13.43
2023-02-07T01:55:15.945Z,18.88
2023-02-07T01:57:44.995Z,16.60
2023-02-07T02:00:15.567Z,27.30
2023-02-07T02:02:44.864Z,22.83
2023-02-07T02:05:13.627Z,26.80
2023-02-07T02:07:41.872Z,38.50
2023-02-07T02:10:18.753Z,41.75
2023-02-07T02:12:55.974Z,104.40
2023-02-07T02:15:52.920Z,69.47
2023-02-07T02:18:57.879Z,77.43
2023-02-07T02:21:54.924Z,36.03
2023-02-07T02:24:43.461Z,17.63
2023-02-07T02:27:31.838Z,32.97
2023-02-07T02:30:27.043Z,13.57
2023-02-07T02:33:33.555Z,27.48
2023-02-07T02:36:38.627Z,16.98
2023-02-07T02:39:41.660Z,110.22
2023-02-07T02:42:16.967Z,20.27
2023-02-07T02:44:52.934Z,72.30
2023-02-07T02:47:21.377Z,115.53
2023-02-07T02:49:49.406Z,206.77
2023-02-07T02:52:17.145Z,86.63
2023-02-07T02:54:44.545Z,52.72
2023-02-07T02:57:24.240Z,143.38
2023-02-07T03:00:16.195Z,94.50
2023-02-07T03:03:05.293Z,18.17
2023-02-07T03:05:32.958Z,15.73
2023-02-07T03:08:21.996Z,22.05
2023-02-07T03:10:58.897Z,27.10
2023-02-07T03:13:26.324Z,66.05
2023-02-07T03:16:04.365Z,31.45
2023-02-07T03:18:51.359Z,33.42
2023-02-07T03:21:27.716Z,79.70
2023-02-07T03:23:58.037Z,23.30
2023-02-07T03:26:26.064Z,24.98
2023-02-07T03:28:54.588Z,79.05
2023-02-07T03:31:24.636Z,55.05
2023-02-07T03:33:56.050Z,35.35
2023-02-07T03:36:38.957Z,29.10
2023-02-07T03:39:06.428Z,27.45
2023-02-07T03:41:47.069Z,45.00
2023-02-07T03:44:16.162Z,36.17
2023-02-07T03:46:43.843Z,52.63
2023-02-07T03:49:12.010Z,132.07
2023-02-07T03:51:42.031Z,120.05
2023-02-07T03:54:10.136Z,66.32
2023-02-07T03:56:38.472Z,103.05
2023-02-07T03:59:06.070Z,141.20
2023-02-07T04:01:35.078Z,24.15
2023-02-07T04:04:03.218Z,45.38
2023-02-07T04:06:30.690Z,23.50
2023-02-07T04:09:04.206Z,25.70
2023-02-07T04:11:32.047Z,24.85
2023-02-07T04:13:59.483Z,24.88
2023-02-07T04:16:27.539Z,18.30
2023-02-07T04:18:55.507Z,13.98
2023-02-07T04:21:23.069Z,49.15
2023-02-07T04:23:52.786Z,19.52
2023-02-07T04:26:20.320Z,16.27
2023-02-07T04:28:48.295Z,16.38
2023-02-07T04:31:16.882Z,29.08
2023-02-07T04:33:44.610Z,19.00
2023-02-07T04:36:12.885Z,14.15
2023-02-07T04:38:41.416Z,14.85
2023-02-07T04:41:13.756Z,18.77
2023-02-07T04:43:44.378Z,22.17
2023-02-07T04:46:12.006Z,24.30
2023-02-07T04:48:39.702Z,59.60
2023-02-07T04:51:07.646Z,45.53
2023-02-07T04:53:35.286Z,29.17
2023-02-07T04:56:02.892Z,81.80
2023-02-07T04:58:30.327Z,34.35
2023-02-07T05:00:58.006Z,16.33
2023-02-07T05:03:25.824Z,21.92
2023-02-07T05:05:55.675Z,28.08
2023-02-07T05:08:25.262Z,27.38
2023-02-07T05:10:55.242Z,20.05
2023-02-07T05:13:23.469Z,22.05
2023-02-07T05:15:51.362Z,24.15
2023-02-07T05:18:19.379Z,22.98
2023-02-07T05:20:47.165Z,23.13
2023-02-07T05:23:19.063Z,25.45
2023-02-07T05:25:48.983Z,23.97
2023-02-07T05:28:20.312Z,25.23
2023-02-07T05:30:52.923Z,21.10
2023-02-07T05:33:24.437Z,31.95
2023-02-07T05:35:52.043Z,25.75
2023-02-07T05:38:21.554Z,24.10
2023-02-07T05:40:49.923Z,29.67
2023-02-07T05:43:17.856Z,36.55
2023-02-07T05:45:51.705Z,37.92
2023-02-07T05:48:19.094Z,43.92
2023-02-07T05:50:46.614Z,52.50
2023-02-07T05:53:14.072Z,61.70
2023-02-07T05:55:41.657Z,69.05
2023-02-07T05:58:09.488Z,81.43
2023-02-07T06:00:36.950Z,71.35
2023-02-07T06:03:06.361Z,89.97
2023-02-07T06:05:38.193Z,111.63
2023-02-07T06:08:06.130Z,128.25
2023-02-07T06:10:39.523Z,142.65
2023-02-07T06:13:07.183Z,141.80
2023-02-07T06:15:34.644Z,158.32
2023-02-07T06:18:02.939Z,148.20
2023-02-07T06:20:30.445Z,158.32
2023-02-07T06:22:57.846Z,157.40
2023-02-07T06:25:25.324Z,161.57
2023-02-07T06:27:52.702Z,142.25
2023-02-07T06:30:20.304Z,145.05
2023-02-07T06:32:47.622Z,165.65
2023-02-07T06:35:15.484Z,159.00
2023-02-07T06:37:42.915Z,137.07
2023-02-07T06:40:10.652Z,161.90
2023-02-07T06:42:38.097Z,149.27
2023-02-07T06:45:05.777Z,156.48
2023-02-07T06:47:35.894Z,161.60
2023-02-07T06:50:04.702Z,179.55
2023-02-07T06:52:32.185Z,159.73
2023-02-07T06:54:59.543Z,139.20
2023-02-07T06:57:26.993Z,137.35
2023-02-07T06:59:56.972Z,143.88
2023-02-07T07:02:24.432Z,151.43
2023-02-07T07:04:51.827Z,155.73
2023-02-07T07:07:19.277Z,151.32
2023-02-07T07:09:46.809Z,142.20
2023-02-07T07:12:15.320Z,140.35
2023-02-07T07:14:42.714Z,141.20
2023-02-07T07:17:10.174Z,124.20
2023-02-07T07:19:37.557Z,176.73
2023-02-07T07:22:16.801Z,191.77
2023-02-07T07:24:44.216Z,211.45
2023-02-07T07:27:11.593Z,160.73
2023-02-07T07:29:39.011Z,189.73
2023-02-07T07:32:06.800Z,142.30
2023-02-07T07:34:34.190Z,135.75
2023-02-07T07:37:01.510Z,149.85
2023-02-07T07:39:28.989Z,167.73
2023-02-07T07:41:56.548Z,158.48
2023-02-07T07:44:23.984Z,155.95
2023-02-07T07:46:51.342Z,144.57
2023-02-07T07:49:18.839Z,141.90
2023-02-07T07:51:46.900Z,149.57
2023-02-07T07:54:14.663Z,132.77
2023-02-07T07:56:42.043Z,151.57
2023-02-07T07:59:20.020Z,101.70
2023-02-07T08:01:50.917Z,187.07
2023-02-07T08:04:18.365Z,230.90
2023-02-07T08:06:48.845Z,190.35
2023-02-07T08:09:16.174Z,160.75
2023-02-07T08:11:46.429Z,98.00
2023-02-07T08:14:13.881Z,125.80
2023-02-07T08:16:41.302Z,170.70
2023-02-07T08:19:09.979Z,179.73
2023-02-07T08:21:37.382Z,123.43
2023-02-07T08:24:07.908Z,184.05
2023-02-07T08:26:35.264Z,96.32
2023-02-07T08:29:02.585Z,119.85
2023-02-07T08:31:30.018Z,128.98
2023-02-07T08:33:57.398Z,91.25
2023-02-07T08:36:24.808Z,127.72
2023-02-07T08:38:52.634Z,166.25
2023-02-07T08:41:20.163Z,123.28
2023-02-07T08:43:47.557Z,107.75
2023-02-07T08:46:14.944Z,123.82
2023-02-07T08:48:42.486Z,112.38
2023-02-07T08:51:10.246Z,103.80
2023-02-07T08:53:37.629Z,101.85
2023-02-07T08:56:05.323Z,76.78
2023-02-07T08:58:32.675Z,89.35
2023-02-07T09:01:00.195Z,86.25
2023-02-07T09:03:27.721Z,88.65
2023-02-07T09:05:59.336Z,73.68
2023-02-07T09:08:27.110Z,78.70
2023-02-07T09:10:54.496Z,75.25
2023-02-07T09:13:22.056Z,69.47
2023-02-07T09:15:57.549Z,72.90
2023-02-07T09:18:25.750Z,69.38
2023-02-07T09:20:53.298Z,71.05
2023-02-07T09:23:20.893Z,69.40
2023-02-07T09:25:50.145Z,73.47
2023-02-07T09:28:25.012Z,68.30
2023-02-07T09:30:53.925Z,70.68
2023-02-07T09:33:23.477Z,67.97
2023-02-07T09:35:52.621Z,59.83
2023-02-07T09:38:25.705Z,79.03
2023-02-07T09:40:56.299Z,76.97
2023-02-07T09:43:56.630Z,69.90
2023-02-07T09:46:41.009Z,77.40
2023-02-07T09:49:23.441Z,76.03
2023-02-07T09:51:53.832Z,84.10
2023-02-07T09:54:42.167Z,73.68
2023-02-07T09:57:21.819Z,70.85
2023-02-07T10:00:06.340Z,71.90
2023-02-07T10:05:38.689Z,67.85
2023-02-07T10:08:09.569Z,74.10
2023-02-07T10:10:46.057Z,66.50
2023-02-07T10:13:41.539Z,65.10
2023-02-07T10:16:33.658Z,63.92
2023-02-07T10:19:21.701Z,63.17
2023-02-07T10:22:12.031Z,64.53
2023-02-07T10:24:42.364Z,60.70
2023-02-07T10:27:14.695Z,66.10
2023-02-07T10:30:17.156Z,63.85
2023-02-07T10:32:47.638Z,58.65
2023-02-07T10:35:32.750Z,62.60
2023-02-07T10:38:03.546Z,65.07
2023-02-07T10:40:55.197Z,66.93
2023-02-07T10:43:34.526Z,59.17
2023-02-07T10:46:06.923Z,57.10
2023-02-07T10:51:21.823Z,55.05
2023-02-07T10:54:20.785Z,59.17
2023-02-07T10:56:54.685Z,59.40
2023-02-07T10:59:31.444Z,61.17
2023-02-07T11:01:59.529Z,57.10
2023-02-07T11:04:37.612Z,52.58
2023-02-07T11:07:07.490Z,50.15
2023-02-07T11:09:41.602Z,53.13
2023-02-07T11:12:25.537Z,50.08
2023-02-07T11:15:08.178Z,50.78
2023-02-07T11:17:35.794Z,53.60
2023-02-07T11:20:06.576Z,50.13
2023-02-07T11:22:33.874Z,55.00
2023-02-07T11:25:04.637Z,48.67
2023-02-07T11:27:40.354Z,46.38
2023-02-07T11:30:10.815Z,51.35
2023-02-07T11:32:38.832Z,47.53
2023-02-07T11:35:19.320Z,47.90
2023-02-07T11:38:00.429Z,48.25
2023-02-07T11:40:48.850Z,47.95
2023-02-07T11:43:19.823Z,52.13
2023-02-07T11:48:43.655Z,47.92
2023-02-07T11:51:17.035Z,43.08
2023-02-07T11:53:49.941Z,41.10
2023-02-07T11:58:56.938Z,42.05
2023-02-07T12:01:35.304Z,39.47
2023-02-07T12:04:19.492Z,39.50
2023-02-07T12:07:03.396Z,37.72
2023-02-07T12:09:43.829Z,39.08
2023-02-07T12:12:19.999Z,39.83
2023-02-07T12:15:01.825Z,33.58
2023-02-07T12:17:53.995Z,36.05
2023-02-07T12:20:46.436Z,34.03
2023-02-07T12:23:43.565Z,30.35
2023-02-07T12:26:21.160Z,34.60
2023-02-07T12:29:13.925Z,31.63
2023-02-07T12:31:52.901Z,28.75
2023-02-07T12:34:42.311Z,32.42
2023-02-07T12:37:30.707Z,32.10
2023-02-07T12:40:06.440Z,31.08
2023-02-07T12:42:35.736Z,25.77
2023-02-07T12:45:11.890Z,23.92
2023-02-07T12:47:51.528Z,26.25
2023-02-07T12:50:47.831Z,28.10
2023-02-07T12:53:47.192Z,30.10
2023-02-07T12:56:40.356Z,26.65
2023-02-07T12:59:40.619Z,31.58
2023-02-07T13:02:23.321Z,29.50
2023-02-07T13:05:31.523Z,27.15
2023-02-07T13:08:13.881Z,27.98
2023-02-07T13:10:50.664Z,27.92
2023-02-07T13:13:23.822Z,31.60
2023-02-07T13:16:04.447Z,27.63
2023-02-07T13:18:50.944Z,28.08
2023-02-07T13:21:53.626Z,28.17
2023-02-07T13:24:22.857Z,27.30
2023-02-07T13:26:55.003Z,30.98
2023-02-07T13:29:24.701Z,26.42
2023-02-07T13:32:12.531Z,26.58
2023-02-07T13:34:50.825Z,27.38
2023-02-07T13:37:20.328Z,26.98
2023-02-07T13:39:59.517Z,26.92
2023-02-07T13:42:45.368Z,30.50
2023-02-07T13:45:16.191Z,29.05
2023-02-07T13:47:55.974Z,25.95
2023-02-07T13:50:46.099Z,26.05
2023-02-07T13:53:16.505Z,27.35
2023-02-07T13:55:44.520Z,23.27
2023-02-07T13:58:52.953Z,26.33
2023-02-07T14:01:31.518Z,25.63
2023-02-07T14:04:11.669Z,23.77
2023-02-07T14:07:04.192Z,23.10
2023-02-07T14:09:40.688Z,29.63
2023-02-07T14:12:29.445Z,27.33
2023-02-07T14:15:17.496Z,28.33
2023-02-07T14:17:44.882Z,26.20
2023-02-07T14:20:37.976Z,24.70
2023-02-07T14:23:18.813Z,23.58
2023-02-07T14:25:50.109Z,26.45
2023-02-07T14:28:36.667Z,23.73
2023-02-07T14:31:22.605Z,27.63
2023-02-07T14:34:13.311Z,22.80
2023-02-07T14:36:44.120Z,23.73
2023-02-07T14:39:11.385Z,23.67
2023-02-07T14:41:42.501Z,24.17
2023-02-07T14:44:28.936Z,29.30
2023-02-07T14:46:58.908Z,25.42
2023-02-07T14:49:45.901Z,23.35
2023-02-07T14:52:16.068Z,25.40
2023-02-07T14:54:54.524Z,21.77
2023-02-07T14:57:41.435Z,24.05
2023-02-07T15:00:31.431Z,24.77
2023-02-07T15:03:06.143Z,24.00
2023-02-07T15:05:36.377Z,25.40
2023-02-07T15:08:03.698Z,26.17
2023-02-07T15:10:39.944Z,25.83
2023-02-07T15:13:18.397Z,23.48
2023-02-07T15:15:50.394Z,21.42
2023-02-07T15:18:18.704Z,26.50
2023-02-07T15:20:52.114Z,23.75
2023-02-07T15:23:19.666Z,24.88
2023-02-07T15:25:49.579Z,26.27
2023-02-07T15:28:26.628Z,27.17
2023-02-07T15:31:16.421Z,24.83
2023-02-07T15:33:51.834Z,18.85
2023-02-07T15:36:28.397Z,28.90
2023-02-07T15:38:56.379Z,22.13
2023-02-07T15:41:24.166Z,21.80
2023-02-07T15:43:58.740Z,24.25
2023-02-07T15:46:27.460Z,21.38
2023-02-07T15:49:01.378Z,20.67
2023-02-07T15:51:31.397Z,22.35
2023-02-07T15:54:00.205Z,21.35
2023-02-07T15:56:30.225Z,21.65
2023-02-07T15:59:03.119Z,22.17
2023-02-07T16:04:00.263Z,22.35
2023-02-07T16:06:30.328Z,20.20
2023-02-07T16:09:01.003Z,22.60
2023-02-07T16:11:30.463Z,23.83
2023-02-07T16:14:06.372Z,21.52
2023-02-07T16:16:37.471Z,21.80
2023-02-07T16:19:09.702Z,21.95
2023-02-07T16:21:37.679Z,23.85
2023-02-07T16:24:27.611Z,20.88
2023-02-07T16:26:55.759Z,22.58
2023-02-07T16:29:29.031Z,21.30
2023-02-07T16:31:56.715Z,22.02
2023-02-07T16:34:24.727Z,20.65
2023-02-07T16:36:54.426Z,21.25
2023-02-07T16:39:23.384Z,22.05
2023-02-07T16:42:06.178Z,22.20
2023-02-07T16:44:35.346Z,20.83
2023-02-07T16:47:03.394Z,17.80
2023-02-07T16:49:32.097Z,19.02
2023-02-07T16:52:00.673Z,19.10
2023-02-07T16:54:28.235Z,23.42
2023-02-07T16:56:57.644Z,20.27
2023-02-07T16:59:25.847Z,16.05
2023-02-07T17:01:54.195Z,17.17
2023-02-07T17:04:22.168Z,19.77
2023-02-07T17:06:50.501Z,17.30
2023-02-07T17:09:24.130Z,20.38
2023-02-07T17:11:53.215Z,18.20
2023-02-07T17:14:21.175Z,17.45
2023-02-07T17:16:49.284Z,17.63
2023-02-07T17:19:19.784Z,18.13
2023-02-07T17:21:47.693Z,19.25
2023-02-07T17:24:15.576Z,19.38
2023-02-07T17:26:46.678Z,18.50
2023-02-07T17:29:16.306Z,20.90
2023-02-07T17:31:44.108Z,22.88
2023-02-07T17:34:11.729Z,22.45
2023-02-07T17:36:47.989Z,21.63
2023-02-07T17:39:16.822Z,27.70
2023-02-07T17:41:44.617Z,20.27
2023-02-07T17:44:16.046Z,25.15
2023-02-07T17:46:44.209Z,21.38
2023-02-07T17:49:15.873Z,22.05
2023-02-07T17:51:43.501Z,25.90
2023-02-07T17:54:10.864Z,22.85
2023-02-07T17:56:40.610Z,24.42
2023-02-07T17:59:13.218Z,23.80
2023-02-07T18:01:41.670Z,21.15
2023-02-07T18:04:09.055Z,23.65
2023-02-07T18:06:36.517Z,20.42
2023-02-07T18:09:04.131Z,24.02
2023-02-07T18:11:31.680Z,22.13
2023-02-07T18:13:59.099Z,24.55
2023-02-07T18:16:27.202Z,24.05
2023-02-07T18:18:56.884Z,26.88
2023-02-07T18:21:24.417Z,24.48
2023-02-07T18:23:53.425Z,22.35
2023-02-07T18:26:21.396Z,24.23
2023-02-07T18:28:49.229Z,25.08
2023-02-07T18:31:19.552Z,22.85
2023-02-07T18:33:47.365Z,23.17
2023-02-07T18:36:15.910Z,25.58
2023-02-07T18:38:43.574Z,23.05
2023-02-07T18:41:13.238Z,25.13
2023-02-07T18:43:41.703Z,24.67
2023-02-07T18:46:11.010Z,24.80
2023-02-07T18:48:39.008Z,24.90
2023-02-07T18:51:08.694Z,29.30
2023-02-07T18:53:36.208Z,27.38
2023-02-07T18:56:10.375Z,23.10
2023-02-07T18:58:38.160Z,25.83
2023-02-07T19:01:09.921Z,23.58
2023-02-07T19:03:38.568Z,27.05
2023-02-07T19:06:07.606Z,30.92
2023-02-07T19:08:35.292Z,30.52
2023-02-07T19:11:05.295Z,25.98
2023-02-07T19:13:33.687Z,27.40
2023-02-07T19:16:13.820Z,29.25
2023-02-07T19:18:41.452Z,27.20
2023-02-07T19:21:14.526Z,26.38
2023-02-07T19:23:42.731Z,29.77
2023-02-07T19:26:11.108Z,30.33
2023-02-07T19:28:40.053Z,31.33
2023-02-07T19:31:09.408Z,29.73
2023-02-07T19:33:37.094Z,30.73
2023-02-07T19:36:06.686Z,34.17
2023-02-07T19:38:34.638Z,31.70
2023-02-07T19:41:02.389Z,34.42
2023-02-07T19:43:29.877Z,30.10
2023-02-07T19:45:57.583Z,33.00
2023-02-07T19:48:25.018Z,33.08
2023-02-07T19:51:00.502Z,58.90
2023-02-07T19:53:30.903Z,55.13
2023-02-07T19:56:02.845Z,46.83
2023-02-07T19:58:34.707Z,35.43
2023-02-07T20:01:02.131Z,34.97
2023-02-07T20:03:30.130Z,35.63
2023-02-07T20:06:00.897Z,34.63
2023-02-07T20:08:28.639Z,33.95
2023-02-07T20:10:55.981Z,34.88
2023-02-07T20:13:23.333Z,31.13
2023-02-07T20:15:50.679Z,31.25
2023-02-07T20:18:18.046Z,31.88
2023-02-07T20:20:48.096Z,28.92
2023-02-07T20:23:15.716Z,31.08
2023-02-07T20:25:43.207Z,29.40
2023-02-07T20:28:10.851Z,33.30
2023-02-07T20:30:44.438Z,29.58
2023-02-07T20:33:11.888Z,30.50
2023-02-07T20:35:39.831Z,30.42
2023-02-07T20:38:09.288Z,29.80
2023-02-07T20:40:36.659Z,28.80
2023-02-07T20:43:04.050Z,34.40
2023-02-07T20:45:31.465Z,32.67
2023-02-07T20:47:58.853Z,32.00
2023-02-07T20:50:26.215Z,32.38
2023-02-07T20:52:53.568Z,31.50
2023-02-07T20:55:20.941Z,29.80
2023-02-07T20:57:48.346Z,31.67
2023-02-07T21:00:15.978Z,46.00
2023-02-07T21:02:43.475Z,34.88
2023-02-07T21:05:11.008Z,36.97
2023-02-07T21:07:38.326Z,31.45
2023-02-07T21:10:06.440Z,30.08
2023-02-07T21:12:33.902Z,32.17
2023-02-07T21:15:01.290Z,35.17
2023-02-07T21:17:28.680Z,34.20
2023-02-07T21:19:55.979Z,34.60
2023-02-07T21:22:24.043Z,37.75
2023-02-07T21:24:51.600Z,32.95
2023-02-07T21:27:18.982Z,34.78
2023-02-07T21:29:46.315Z,33.67
2023-02-07T21:32:13.686Z,33.60
2023-02-07T21:34:41.140Z,31.70
2023-02-07T21:37:08.458Z,32.33
2023-02-07T21:39:35.848Z,40.05
2023-02-07T21:42:03.245Z,35.08
2023-02-07T21:44:30.563Z,33.05
2023-02-07T21:46:57.958Z,31.77
2023-02-07T21:49:25.358Z,31.55
2023-02-07T21:51:53.860Z,36.13
2023-02-07T21:54:21.379Z,36.15
2023-02-07T21:56:50.897Z,33.17
2023-02-07T21:59:19.593Z,37.67
2023-02-07T22:01:47.671Z,35.33
2023-02-07T22:04:15.709Z,37.25
2023-02-07T22:06:44.351Z,38.30
2023-02-07T22:09:13.421Z,41.00
2023-02-07T22:11:41.346Z,41.42
2023-02-07T22:14:10.097Z,46.03
2023-02-07T22:16:37.495Z,42.80
2023-02-07T22:19:06.321Z,43.75
2023-02-07T22:21:37.748Z,40.40
2023-02-07T22:24:06.259Z,39.10
2023-02-07T22:29:29.361Z,41.67
2023-02-07T22:31:56.838Z,41.97
2023-02-07T22:34:24.333Z,37.28
2023-02-07T22:36:51.797Z,42.33
2023-02-07T22:39:20.773Z,41.58
2023-02-07T22:41:48.147Z,37.47
2023-02-07T22:44:15.500Z,39.40
2023-02-07T22:46:43.666Z,40.67
2023-02-07T22:49:11.167Z,38.78
2023-02-07T22:51:39.217Z,37.13
2023-02-07T22:54:10.662Z,36.70
2023-02-07T22:56:38.735Z,36.00
2023-02-07T22:59:07.024Z,35.88
2023-02-07T23:01:39.517Z,45.00
2023-02-07T23:04:13.276Z,42.65
2023-02-07T23:06:40.774Z,38.35
2023-02-07T23:09:08.400Z,38.17
2023-02-07T23:11:36.312Z,40.10
2023-02-07T23:14:04.763Z,37.20
2023-02-07T23:16:32.933Z,40.95
2023-02-07T23:19:05.511Z,40.30
2023-02-07T23:21:33.001Z,36.40
2023-02-07T23:24:00.527Z,41.55
2023-02-07T23:26:28.084Z,40.65
2023-02-07T23:28:55.897Z,34.28
2023-02-07T23:31:24.379Z,37.65
2023-02-07T23:33:54.049Z,36.85
2023-02-07T23:36:22.191Z,36.65
2023-02-07T23:38:51.282Z,37.08
2023-02-07T23:41:18.950Z,35.50
2023-02-07T23:43:46.640Z,35.55
2023-02-07T23:46:15.363Z,42.20
2023-02-07T23:48:42.836Z,39.97
2023-02-07T23:51:11.559Z,38.22
2023-02-07T23:53:39.161Z,38.45
2023-02-07T23:56:07.385Z,37.67
2023-02-07T23:58:34.766Z,42.28
